Aeroporto :
LOGIN :

Iscrizione | Disclaimer

   EN    FR    IT 

 










Sommario :    VFR   VFR Marginale   IFR   IFR Intensivo   IFR Molto Intensivo
Visibilità : 
Base nubi : 
>= 8 km
>= 3000ft
5 / 8 km
1000 / 3000 ft
1500m / 5 km
500 / 1000 ft
800 / 1500m
200 / 500 ft
< 800m
< 200 ft
Simboli :   Temporali  Nebbia  Neve Forte  Precipitazioni Forti  Vento > 20 kt
SIGMETs :   Varie  Temporali  Ghiacco  Turbolenza  Onda orograficha  Ceneri Vulcaniche






- Altitudine del aeroporto : 209 ft
- Codice IATA : CLY


LFKC - Calvi

ULTIMO METAR :
  • 241400Z AUTO 36004KT 9999 FEW066/// BKN084/// BKN110/// ///TCU 14/11 Q1021 BECMG SHRA FEW035CB BKN045

METARs OBSOLETI :
  • 241330Z AUTO 36004KT 9999 FEW064/// ///TCU 15/11 Q1021 BECMG SHRA FEW035CB BKN045
  • 241300Z AUTO 33005KT 280V010 9999 SCT084/// SCT120/// ///TCU 15/10 Q1021 BECMG SHRA FEW035CB BKN045
  • 241230Z AUTO 33004KT 280V360 9999 BKN086/// BKN130/// ///TCU 15/09 Q1022 BECMG SHRA FEW035CB BKN045
  • 241200Z AUTO 34004KT 310V010 9999 BKN088 BKN130 15/10 Q1022 NOSIG
  • 241130Z AUTO 36005KT 9999 FEW062 SCT086 BKN120 15/10 Q1022 NOSIG

TAF TAF LFKC
Valido dal 24 a 09 ore il 25 a 09 ore UTC


240800Z 2409/2509 34008KT 9999 FEW040 BKN150 TX15/2412Z TN07/2503Z
BECMG 2414/2415 SHRA FEW035CB BKN045
BECMG 2501/2503 NSW NSC
ATIS : +33 4 95 65 82 49



MetMap, La meteo Aeronautica in un colpo d'occhio ! - Copyright ORBIFLY Dicembre 2007 - Disclaimer

ORBIFLY MET'MAP TEAM :

Programmazione e sviluppo : Alexandra Zaïnal
Concezione : Baudouin d'Aumeries
Aiuto per la programmazione : Marc-Olivier Méhu
Supporto tecnico e logistico : Manuel Goepfert
Aiuto per la traduzione : Arnaldo La Scala

Contatto : metmap@orbifly.com




FONTI E CREDITI :

   NOAA